Observations à ENGHIEN-REBECQ  fevrier 2004
Date RR Tx Tn Tm T6 PP U DD FF O C/L
1/02/2004 4,0 11,9 9,0 10,5 10,5 1008 74 SE 30 4 S
2/02/2004 1,0 13,0 10,6 11,8 10,9 1016 82 SO 20 7 S
3/02/2004 0,0 15,1 9,8 12,5 11,5 1025 75 SO 12 2 S
4/02/2004 0,0 16,4 12,0 14,2 12,2 1028 70 S 12 8 S
5/02/2004 0,0 14,3 12,1 13,2 12,2 1024 71 SO 15 8 S
6/02/2004 1,0 14,8 10,0 12,4 10,2 1021 91 SO 0 8 S
7/02/2004 0,0 10,8 5,7 8,3 8,0 1009 72 SO 40 1 S
8/02/2004 9,0 6,4 2,0 4,2 5,2 1007 63 SO 20 8 S
9/02/2004 0,0 6,5 -0,4 3,1 1,7 1030 76 sud  0 4 S
10/02/2004 0,0 4,9 -1,9 1,5 -1,6 1037 89 SO 0 0 gel
11/02/2004 4,0 8,0 4,6 6,3 7,6 1022 98 O 10 8 H
12/02/2004 0,0 7,3 4,3 5,8 4,8 1033 96 N 0 8 S
13/02/2004 0,0 8,4 5,4 6,9 5,7 1036 96 E 0 8 S
14/02/2004 0,0 8,3 4,5 6,4 6,0 1029 97 SO 0 8 S
15/02/2004 0,0 8,3 4,1 6,2 4,8 1024 98 SO 0 8 S
16/02/2004 0,0 7,1 -0,4 3,4 4,8 1024 98 SO 0 8 S
17/02/2004 0,0 5,3 2,1 3,7 2,7 1030 98 E 0 8 S
18/02/2004 0,0 8,1 3,5 5,8 3,7 1028 98 N 0 8 H
19/02/2004 0,0 3,9 0,3 2,1 2,0 1022 87 NE 15 1 S
20/02/2004 0,0 3,7 -2,0 0,9 -1,4 1021 69 NE 20 1 gel
21/02/2004 0,0 3,7 -1,4 1,2 -0,9 1018 78 NE 0 1 gel
22/02/2004 0,0 5,1 -1,5 1,8 -1,0 1006 90 N 0 8 gel
23/02/2004 0,0 5,7 -2,1 1,8 -1,6 1013 88 NO 0 1 gel
24/02/2004 2,0 5,6 -1,7 2,0 -0,6 1018 98 SO 0 8 neige
25/02/2004 2,0 3,7 -0,7 1,5 1,1 1005 98 SO 0 8 hum
26/02/2004 2,0 4,0 -3,4 0,3 -2,9 1000 83 NO 0 1 gel/neig
27/02/2004 2,0 3,6 -2,3 0,7 -1,5 994 85 SO 12 8 gel
28/02/2004 2,0 4,1 -0,9 1,6 0,2 997 98 SO 0 8 neige
29/02/2004 0,0 3,3 -3,0 0,2 -1,9 1012 96 E 0 9 BR/gel
                       
                     
Moyenne/Totaux 29,0 7,6 2,7 5,2 3,9 1018,5 86,6        
RR = précipitations   RR = précipitations  
Tx = Températures maximales   Tx = Températures maximales
Tn = Températures minimales   Tn = Températures minimales
T6 = Températures à 6 heures   T6 = Températures à 6 heures
PP = pression atmosphériques réduites au niveau de la mer  PP = pression atmosphériques réduites au niveau de la mer